Huntington, IN

8:50 PM EDT on August 29, 2015 (GMT -0400)
Carlisle Crossing | | Change Station
CLOSE
Current Station
Personal Weather Station
Location: Huntington, IN
Elevation: 820 ft
Nearby Weather Stations

Elev 820 ft 40.91 °N, 85.51 °W | Updated 12 minutes ago

Overcast
Overcast
72.7 °F
Feels Like 72.7 °F
N
0.0
Wind Variable Wind from ESE

Today
High -- | Low -- °F
--% Chance of Precip.
Yesterday
High -- | Low -- °F
Precip. -- in
7:05 AM 8:19 PM
Full, 100% visible
Pressure 30.03 in
Visibility 8.0 miles
Clouds Few 8000 ft
Mostly Cloudy 11000 ft
Mostly Cloudy 16000 ft
Dew Point 71 °F
Humidity 93%
Rainfall 0.00 in
Snow Depth Not available.
UV 0 out of 12
Pollen 9.30 out of 12
Air Quality Not available.
Flu Activity Not available.
METAR KFWA 292354Z 00000KT 8SM FEW080 BKN110 BKN160 23/21 A3004 RMK AO2 RAE15 SLP169 P0000 60000 T02330211 10261 20233 55006
Pressure 30.03 in
Visibility 8.0 miles
Clouds Few 8000 ft
Mostly Cloudy 11000 ft
Mostly Cloudy 16000 ft
Dew Point 71 °F
Humidity 93%
Rainfall 0.00 in
Snow Depth Not available.
UV 0 out of 12
Pollen 9.30 out of 12
Air Quality Not available.
Flu Activity Not available.
METAR KFWA 292354Z 00000KT 8SM FEW080 BKN110 BKN160 23/21 A3004 RMK AO2 RAE15 SLP169 P0000 60000 T02330211 10261 20233 55006

10-Day Weather Forecast

×

Almanac

Astronomy

Aug. 29, 2015 Rise Set
Actual Time
Civil Twilight
Nautical Twilight
Astronomical Twilight
Moon
Length of Visible Light
Length of Day
Tomorrow will be .
, % of the Moon is Illuminated

Today's Extremes

State Highs State Lows

Community

WunderPhotos

Upload Photos

1,850,813 photos uploaded!

WunderBlogs® & News

Nearby

Air Quality

  Air Quality AQ Index Pollutant
Not available.

Snow Depth

Station Depth Elevation

Earthquake Activity

City Distance Mag. Time & Date
Minimum magnitude displayed is 2.5.

Coastal Water Temperatures

Place Temperature

Stations

Nearby Weather Stations

Station Location Temp. Windchill Dew Point Humidity Wind Precip. Elev Updated Type